sensor_id;sensor_type;location;lat;lon;timestamp;pressure;altitude;pressure_sealevel;temperature;humidity
49122;BME280;35529;44.342;25.944;2023-04-19T00:01:21;100363.38;;;12.04;100.00
49122;BME280;35529;44.342;25.944;2023-04-19T00:03:53;100371.56;;;12.02;100.00
49122;BME280;35529;44.342;25.944;2023-04-19T00:06:22;100357.66;;;12.00;100.00
49122;BME280;35529;44.342;25.944;2023-04-19T00:08:49;100366.44;;;12.01;100.00
49122;BME280;35529;44.342;25.944;2023-04-19T00:11:20;100362.56;;;11.97;100.00
49122;BME280;35529;44.342;25.944;2023-04-19T00:13:46;100373.22;;;11.97;100.00
49122;BME280;35529;44.342;25.944;2023-04-19T00:16:17;100373.00;;;11.98;100.00
49122;BME280;35529;44.342;25.944;2023-04-19T00:18:45;100363.16;;;11.99;100.00
49122;BME280;35529;44.342;25.944;2023-04-19T00:21:13;100366.66;;;11.99;100.00
49122;BME280;35529;44.342;25.944;2023-04-19T00:23:45;100361.78;;;11.96;100.00
49122;BME280;35529;44.342;25.944;2023-04-19T00:26:11;100362.38;;;11.98;100.00
49122;BME280;35529;44.342;25.944;2023-04-19T00:28:43;100370.97;;;12.00;100.00
49122;BME280;35529;44.342;25.944;2023-04-19T00:31:12;100368.91;;;12.02;100.00
49122;BME280;35529;44.342;25.944;2023-04-19T00:33:38;100373.41;;;12.02;100.00
49122;BME280;35529;44.342;25.944;2023-04-19T00:36:08;100363.00;;;12.00;100.00
49122;BME280;35529;44.342;25.944;2023-04-19T00:38:38;100368.91;;;11.96;100.00
49122;BME280;35529;44.342;25.944;2023-04-19T00:41:06;100370.31;;;11.91;100.00
49122;BME280;35529;44.342;25.944;2023-04-19T00:43:34;100370.97;;;11.87;100.00
49122;BME280;35529;44.342;25.944;2023-04-19T00:46:04;100360.72;;;11.84;100.00
49122;BME280;35529;44.342;25.944;2023-04-19T00:48:33;100363.38;;;11.77;100.00
49122;BME280;35529;44.342;25.944;2023-04-19T00:51:01;100351.94;;;11.77;100.00
49122;BME280;35529;44.342;25.944;2023-04-19T00:53:29;100350.31;;;11.76;100.00
49122;BME280;35529;44.342;25.944;2023-04-19T00:55:58;100355.63;;;11.76;100.00
49122;BME280;35529;44.342;25.944;2023-04-19T00:58:25;100352.38;;;11.73;100.00
49122;BME280;35529;44.342;25.944;2023-04-19T01:00:56;100362.59;;;11.77;100.00
49122;BME280;35529;44.342;25.944;2023-04-19T01:03:27;100358.69;;;11.79;100.00
49122;BME280;35529;44.342;25.944;2023-04-19T01:05:56;100354.19;;;11.80;100.00
49122;BME280;35529;44.342;25.944;2023-04-19T01:08:27;100344.56;;;11.79;100.00
49122;BME280;35529;44.342;25.944;2023-04-19T01:10:56;100352.34;;;11.80;100.00
49122;BME280;35529;44.342;25.944;2023-04-19T01:13:24;100346.81;;;11.82;100.00
49122;BME280;35529;44.342;25.944;2023-04-19T01:15:53;100345.59;;;11.78;100.00
49122;BME280;35529;44.342;25.944;2023-04-19T01:18:19;100332.31;;;11.78;100.00
49122;BME280;35529;44.342;25.944;2023-04-19T01:20:48;100331.69;;;11.76;100.00
49122;BME280;35529;44.342;25.944;2023-04-19T01:23:15;100340.88;;;11.73;100.00
49122;BME280;35529;44.342;25.944;2023-04-19T01:25:45;100337.84;;;11.69;100.00
49122;BME280;35529;44.342;25.944;2023-04-19T01:28:17;100328.22;;;11.68;100.00
49122;BME280;35529;44.342;25.944;2023-04-19T01:30:48;100328.84;;;11.64;100.00
49122;BME280;35529;44.342;25.944;2023-04-19T01:33:19;100338.03;;;11.61;100.00
49122;BME280;35529;44.342;25.944;2023-04-19T01:35:47;100332.94;;;11.60;100.00
49122;BME280;35529;44.342;25.944;2023-04-19T01:38:18;100334.56;;;11.61;100.00
49122;BME280;35529;44.342;25.944;2023-04-19T01:40:47;100333.94;;;11.58;100.00
49122;BME280;35529;44.342;25.944;2023-04-19T01:43:15;100336.63;;;11.52;100.00
49122;BME280;35529;44.342;25.944;2023-04-19T01:45:42;100336.63;;;11.52;100.00
49122;BME280;35529;44.342;25.944;2023-04-19T01:48:10;100333.78;;;11.47;100.00
49122;BME280;35529;44.342;25.944;2023-04-19T01:50:40;100328.47;;;11.40;100.00
49122;BME280;35529;44.342;25.944;2023-04-19T01:53:09;100337.66;;;11.37;100.00
49122;BME280;35529;44.342;25.944;2023-04-19T01:55:36;100340.72;;;11.34;100.00
49122;BME280;35529;44.342;25.944;2023-04-19T01:58:05;100341.13;;;11.31;100.00
49122;BME280;35529;44.342;25.944;2023-04-19T02:00:36;100339.69;;;11.29;100.00
49122;BME280;35529;44.342;25.944;2023-04-19T02:03:05;100332.34;;;11.24;100.00
49122;BME280;35529;44.342;25.944;2023-04-19T02:05:35;100330.09;;;11.21;100.00
49122;BME280;35529;44.342;25.944;2023-04-19T02:08:08;100334.19;;;11.17;100.00
49122;BME280;35529;44.342;25.944;2023-04-19T02:10:35;100333.16;;;11.11;100.00
49122;BME280;35529;44.342;25.944;2023-04-19T02:13:03;100328.47;;;11.06;100.00
49122;BME280;35529;44.342;25.944;2023-04-19T02:15:32;100330.50;;;11.04;100.00
49122;BME280;35529;44.342;25.944;2023-04-19T02:17:58;100339.69;;;11.02;100.00
49122;BME280;35529;44.342;25.944;2023-04-19T02:20:27;100335.59;;;10.99;100.00
49122;BME280;35529;44.342;25.944;2023-04-19T02:22:58;100332.72;;;10.94;100.00
49122;BME280;35529;44.342;25.944;2023-04-19T02:25:24;100324.56;;;10.89;100.00
49122;BME280;35529;44.342;25.944;2023-04-19T02:27:53;100328.03;;;10.83;100.00
49122;BME280;35529;44.342;25.944;2023-04-19T02:30:19;100333.53;;;10.75;100.00
49122;BME280;35529;44.342;25.944;2023-04-19T02:32:53;100325.72;;;10.60;100.00
49122;BME280;35529;44.342;25.944;2023-04-19T02:35:23;100318.56;;;10.60;100.00
49122;BME280;35529;44.342;25.944;2023-04-19T02:37:52;100323.88;;;10.53;100.00
49122;BME280;35529;44.342;25.944;2023-04-19T02:40:18;100320.41;;;10.53;100.00
49122;BME280;35529;44.342;25.944;2023-04-19T02:42:47;100318.97;;;10.50;100.00
49122;BME280;35529;44.342;25.944;2023-04-19T02:45:15;100315.88;;;10.47;100.00
49122;BME280;35529;44.342;25.944;2023-04-19T02:47:41;100311.59;;;10.46;100.00
49122;BME280;35529;44.342;25.944;2023-04-19T02:50:11;100313.03;;;10.48;100.00
49122;BME280;35529;44.342;25.944;2023-04-19T02:52:42;100317.13;;;10.51;100.00
49122;BME280;35529;44.342;25.944;2023-04-19T02:55:08;100319.19;;;10.55;100.00
49122;BME280;35529;44.342;25.944;2023-04-19T02:57:34;100310.59;;;10.60;100.00
49122;BME280;35529;44.342;25.944;2023-04-19T03:00:06;100314.69;;;10.63;100.00
49122;BME280;35529;44.342;25.944;2023-04-19T03:02:37;100315.09;;;10.53;100.00
49122;BME280;35529;44.342;25.944;2023-04-19T03:05:06;100311.63;;;10.59;100.00
49122;BME280;35529;44.342;25.944;2023-04-19T03:07:35;100309.38;;;10.63;100.00
49122;BME280;35529;44.342;25.944;2023-04-19T03:10:06;100308.78;;;10.67;100.00
49122;BME280;35529;44.342;25.944;2023-04-19T03:12:32;100316.97;;;10.72;100.00
49122;BME280;35529;44.342;25.944;2023-04-19T03:15:09;100315.94;;;10.73;100.00
49122;BME280;35529;44.342;25.944;2023-04-19T03:17:40;100311.25;;;10.76;100.00
49122;BME280;35529;44.342;25.944;2023-04-19T03:20:11;100310.44;;;10.75;100.00
49122;BME280;35529;44.342;25.944;2023-04-19T03:22:43;100319.41;;;10.81;100.00
49122;BME280;35529;44.342;25.944;2023-04-19T03:25:09;100317.41;;;10.83;100.00
49122;BME280;35529;44.342;25.944;2023-04-19T03:27:38;100315.75;;;10.88;100.00
49122;BME280;35529;44.342;25.944;2023-04-19T03:30:12;100323.75;;;10.95;100.00
49122;BME280;35529;44.342;25.944;2023-04-19T03:32:39;100328.25;;;11.01;100.00
49122;BME280;35529;44.342;25.944;2023-04-19T03:35:05;100321.72;;;11.04;100.00
49122;BME280;35529;44.342;25.944;2023-04-19T03:37:31;100321.94;;;11.09;100.00
49122;BME280;35529;44.342;25.944;2023-04-19T03:40:03;100322.94;;;11.15;100.00
49122;BME280;35529;44.342;25.944;2023-04-19T03:42:29;100321.09;;;11.22;100.00
49122;BME280;35529;44.342;25.944;2023-04-19T03:44:55;100318.44;;;11.29;100.00
49122;BME280;35529;44.342;25.944;2023-04-19T03:47:22;100322.31;;;11.33;100.00
49122;BME280;35529;44.342;25.944;2023-04-19T03:49:53;100318.84;;;11.39;100.00
49122;BME280;35529;44.342;25.944;2023-04-19T03:52:22;100317.41;;;11.43;100.00
49122;BME280;35529;44.342;25.944;2023-04-19T03:54:50;100322.53;;;11.45;100.00
49122;BME280;35529;44.342;25.944;2023-04-19T03:57:21;100321.50;;;11.46;100.00
49122;BME280;35529;44.342;25.944;2023-04-19T03:59:47;100325.38;;;11.50;100.00
49122;BME280;35529;44.342;25.944;2023-04-19T04:02:15;100321.50;;;11.52;100.00
49122;BME280;35529;44.342;25.944;2023-04-19T04:04:48;100320.47;;;11.53;100.00
49122;BME280;35529;44.342;25.944;2023-04-19T04:07:20;100321.28;;;11.54;100.00
49122;BME280;35529;44.342;25.944;2023-04-19T04:09:51;100327.25;;;11.49;100.00
49122;BME280;35529;44.342;25.944;2023-04-19T04:12:23;100322.53;;;11.45;100.00
49122;BME280;35529;44.342;25.944;2023-04-19T04:14:49;100320.50;;;11.47;100.00
49122;BME280;35529;44.342;25.944;2023-04-19T04:17:19;100318.84;;;11.46;100.00
49122;BME280;35529;44.342;25.944;2023-04-19T04:19:49;100316.41;;;11.51;100.00
49122;BME280;35529;44.342;25.944;2023-04-19T04:22:15;100311.69;;;11.46;100.00
49122;BME280;35529;44.342;25.944;2023-04-19T04:24:43;100309.84;;;11.47;100.00
49122;BME280;35529;44.342;25.944;2023-04-19T04:27:14;100312.69;;;11.45;100.00
49122;BME280;35529;44.342;25.944;2023-04-19T04:29:48;100312.69;;;11.38;100.00
49122;BME280;35529;44.342;25.944;2023-04-19T04:32:19;100316.78;;;11.34;100.00
49122;BME280;35529;44.342;25.944;2023-04-19T04:34:50;100322.13;;;11.34;100.00
49122;BME280;35529;44.342;25.944;2023-04-19T04:37:19;100318.44;;;11.35;100.00
49122;BME280;35529;44.342;25.944;2023-04-19T04:39:48;100309.66;;;11.35;100.00
49122;BME280;35529;44.342;25.944;2023-04-19T04:42:16;100314.97;;;11.28;100.00
49122;BME280;35529;44.342;25.944;2023-04-19T04:44:48;100307.81;;;11.22;100.00
49122;BME280;35529;44.342;25.944;2023-04-19T04:47:16;100318.84;;;11.26;100.00
49122;BME280;35529;44.342;25.944;2023-04-19T04:49:47;100312.53;;;11.33;100.00
49122;BME280;35529;44.342;25.944;2023-04-19T04:52:13;100317.00;;;11.33;100.00
49122;BME280;35529;44.342;25.944;2023-04-19T04:54:42;100319.28;;;11.36;100.00
49122;BME280;35529;44.342;25.944;2023-04-19T04:57:10;100316.78;;;11.34;100.00
49122;BME280;35529;44.342;25.944;2023-04-19T04:59:39;100314.56;;;11.38;100.00
49122;BME280;35529;44.342;25.944;2023-04-19T05:02:10;100316.41;;;11.44;100.00
49122;BME280;35529;44.342;25.944;2023-04-19T05:04:37;100314.75;;;11.50;100.00
49122;BME280;35529;44.342;25.944;2023-04-19T05:07:05;100324.13;;;11.66;100.00
49122;BME280;35529;44.342;25.944;2023-04-19T05:09:32;100319.00;;;11.78;100.00
49122;BME280;35529;44.342;25.944;2023-04-19T05:11:58;100315.50;;;11.84;100.00
49122;BME280;35529;44.342;25.944;2023-04-19T05:14:28;100310.56;;;12.01;100.00
49122;BME280;35529;44.342;25.944;2023-04-19T05:17:00;100308.72;;;12.01;100.00
49122;BME280;35529;44.342;25.944;2023-04-19T05:19:26;100309.28;;;12.17;100.00
49122;BME280;35529;44.342;25.944;2023-04-19T05:21:55;100301.06;;;12.25;100.00
49122;BME280;35529;44.342;25.944;2023-04-19T05:24:22;100303.06;;;12.36;100.00
49122;BME280;35529;44.342;25.944;2023-04-19T05:26:50;100302.44;;;12.34;100.00
49122;BME280;35529;44.342;25.944;2023-04-19T05:29:24;100297.13;;;12.34;100.00
49122;BME280;35529;44.342;25.944;2023-04-19T05:31:53;100285.09;;;12.25;100.00
49122;BME280;35529;44.342;25.944;2023-04-19T05:34:19;100288.69;;;12.37;100.00
49122;BME280;35529;44.342;25.944;2023-04-19T05:36:50;100287.50;;;12.33;100.00
49122;BME280;35529;44.342;25.944;2023-04-19T05:39:16;100297.81;;;12.55;100.00
49122;BME280;35529;44.342;25.944;2023-04-19T05:41:42;100287.34;;;12.60;100.00
49122;BME280;35529;44.342;25.944;2023-04-19T05:44:11;100291.63;;;12.68;100.00
49122;BME280;35529;44.342;25.944;2023-04-19T05:46:37;100294.94;;;12.63;100.00
49122;BME280;35529;44.342;25.944;2023-04-19T05:49:03;100291.34;;;12.76;100.00
49122;BME280;35529;44.342;25.944;2023-04-19T05:51:30;100289.66;;;12.82;100.00
49122;BME280;35529;44.342;25.944;2023-04-19T05:53:56;100279.97;;;12.94;100.00
49122;BME280;35529;44.342;25.944;2023-04-19T05:56:30;100289.72;;;13.00;100.00
49122;BME280;35529;44.342;25.944;2023-04-19T05:58:56;100281.22;;;12.91;100.00
49122;BME280;35529;44.342;25.944;2023-04-19T06:01:24;100281.00;;;12.93;100.00
49122;BME280;35529;44.342;25.944;2023-04-19T06:03:50;100272.31;;;12.98;100.00
49122;BME280;35529;44.342;25.944;2023-04-19T06:06:20;100277.59;;;12.79;100.00
49122;BME280;35529;44.342;25.944;2023-04-19T06:08:49;100278.88;;;12.77;100.00
49122;BME280;35529;44.342;25.944;2023-04-19T06:11:23;100284.00;;;12.71;100.00
49122;BME280;35529;44.342;25.944;2023-04-19T06:13:49;100279.53;;;12.65;100.00
49122;BME280;35529;44.342;25.944;2023-04-19T06:16:19;100270.16;;;12.56;100.00
49122;BME280;35529;44.342;25.944;2023-04-19T06:18:50;100268.25;;;12.70;100.00
49122;BME280;35529;44.342;25.944;2023-04-19T06:21:19;100266.75;;;12.81;100.00
49122;BME280;35529;44.342;25.944;2023-04-19T06:23:48;100263.34;;;12.92;100.00
49122;BME280;35529;44.342;25.944;2023-04-19T06:26:14;100259.84;;;12.98;100.00
49122;BME280;35529;44.342;25.944;2023-04-19T06:28:40;100264.09;;;12.99;100.00
49122;BME280;35529;44.342;25.944;2023-04-19T06:31:09;100264.88;;;13.06;100.00
49122;BME280;35529;44.342;25.944;2023-04-19T06:33:37;100260.59;;;13.05;100.00
49122;BME280;35529;44.342;25.944;2023-04-19T06:36:06;100265.06;;;13.12;100.00
49122;BME280;35529;44.342;25.944;2023-04-19T06:38:37;100268.63;;;13.24;100.00
49122;BME280;35529;44.342;25.944;2023-04-19T06:41:09;100265.00;;;13.44;100.00
49122;BME280;35529;44.342;25.944;2023-04-19T06:43:38;100259.59;;;13.50;100.00
49122;BME280;35529;44.342;25.944;2023-04-19T06:46:08;100264.78;;;13.64;100.00
49122;BME280;35529;44.342;25.944;2023-04-19T06:48:39;100261.44;;;13.68;100.00
49122;BME280;35529;44.342;25.944;2023-04-19T06:51:07;100259.97;;;13.72;100.00
49122;BME280;35529;44.342;25.944;2023-04-19T06:53:34;100256.56;;;13.84;100.00
49122;BME280;35529;44.342;25.944;2023-04-19T06:56:00;100260.59;;;14.05;100.00
49122;BME280;35529;44.342;25.944;2023-04-19T06:58:30;100253.16;;;14.25;100.00
49122;BME280;35529;44.342;25.944;2023-04-19T07:01:02;100260.19;;;14.50;100.00
49122;BME280;35529;44.342;25.944;2023-04-19T07:03:33;100254.06;;;14.80;100.00
49122;BME280;35529;44.342;25.944;2023-04-19T07:06:02;100245.69;;;15.12;100.00
49122;BME280;35529;44.342;25.944;2023-04-19T07:08:29;100253.94;;;15.46;100.00
49122;BME280;35529;44.342;25.944;2023-04-19T07:10:55;100250.19;;;15.83;100.00
49122;BME280;35529;44.342;25.944;2023-04-19T07:13:26;100239.50;;;16.12;100.00
49122;BME280;35529;44.342;25.944;2023-04-19T07:15:54;100239.19;;;16.54;100.00
49122;BME280;35529;44.342;25.944;2023-04-19T07:18:26;100247.34;;;16.93;100.00
49122;BME280;35529;44.342;25.944;2023-04-19T07:20:58;100242.84;;;17.16;100.00
49122;BME280;35529;44.342;25.944;2023-04-19T07:23:27;100241.47;;;17.13;100.00
49122;BME280;35529;44.342;25.944;2023-04-19T07:25:58;100241.22;;;17.32;100.00
49122;BME280;35529;44.342;25.944;2023-04-19T07:28:29;100233.53;;;17.57;100.00
49122;BME280;35529;44.342;25.944;2023-04-19T07:30:58;100237.13;;;17.90;100.00
49122;BME280;35529;44.342;25.944;2023-04-19T07:33:27;100236.41;;;17.95;100.00
49122;BME280;35529;44.342;25.944;2023-04-19T07:35:53;100233.00;;;17.83;100.00
49122;BME280;35529;44.342;25.944;2023-04-19T07:38:21;100237.28;;;18.01;100.00
49122;BME280;35529;44.342;25.944;2023-04-19T07:40:52;100232.44;;;18.03;100.00
49122;BME280;35529;44.342;25.944;2023-04-19T07:43:19;100235.47;;;17.84;100.00
49122;BME280;35529;44.342;25.944;2023-04-19T07:45:49;100248.63;;;17.64;100.00
49122;BME280;35529;44.342;25.944;2023-04-19T07:48:15;100236.28;;;17.23;100.00
49122;BME280;35529;44.342;25.944;2023-04-19T07:50:44;100249.59;;;17.18;100.00
49122;BME280;35529;44.342;25.944;2023-04-19T07:53:16;100247.91;;;17.12;100.00
49122;BME280;35529;44.342;25.944;2023-04-19T07:55:43;100240.75;;;17.01;100.00
49122;BME280;35529;44.342;25.944;2023-04-19T07:58:14;100232.34;;;16.92;100.00
49122;BME280;35529;44.342;25.944;2023-04-19T08:00:41;100238.78;;;16.45;100.00
49122;BME280;35529;44.342;25.944;2023-04-19T08:03:07;100240.97;;;16.19;100.00
49122;BME280;35529;44.342;25.944;2023-04-19T08:05:38;100246.97;;;16.09;100.00
49122;BME280;35529;44.342;25.944;2023-04-19T08:08:10;100244.47;;;16.20;100.00
49122;BME280;35529;44.342;25.944;2023-04-19T08:10:36;100233.91;;;16.13;100.00
49122;BME280;35529;44.342;25.944;2023-04-19T08:13:02;100236.97;;;16.05;100.00
49122;BME280;35529;44.342;25.944;2023-04-19T08:15:32;100237.22;;;16.03;100.00
49122;BME280;35529;44.342;25.944;2023-04-19T08:18:00;100264.22;;;16.31;100.00
49122;BME280;35529;44.342;25.944;2023-04-19T08:20:29;100239.03;;;16.44;100.00
49122;BME280;35529;44.342;25.944;2023-04-19T08:22:57;100238.44;;;16.41;100.00
49122;BME280;35529;44.342;25.944;2023-04-19T08:25:26;100243.59;;;16.31;100.00
49122;BME280;35529;44.342;25.944;2023-04-19T08:27:53;100242.28;;;16.17;100.00
49122;BME280;35529;44.342;25.944;2023-04-19T08:30:22;100234.72;;;16.14;100.00
49122;BME280;35529;44.342;25.944;2023-04-19T08:32:51;100230.09;;;16.26;100.00
49122;BME280;35529;44.342;25.944;2023-04-19T08:35:20;100240.63;;;16.45;100.00
49122;BME280;35529;44.342;25.944;2023-04-19T08:37:50;100231.53;;;16.46;100.00
49122;BME280;35529;44.342;25.944;2023-04-19T08:40:23;100230.69;;;15.99;100.00
49122;BME280;35529;44.342;25.944;2023-04-19T08:42:55;100221.19;;;15.91;100.00
49122;BME280;35529;44.342;25.944;2023-04-19T08:45:25;100220.66;;;16.06;100.00
49122;BME280;35529;44.342;25.944;2023-04-19T08:47:52;100211.38;;;16.43;100.00
49122;BME280;35529;44.342;25.944;2023-04-19T08:50:19;100232.19;;;16.53;100.00
49122;BME280;35529;44.342;25.944;2023-04-19T08:52:51;100224.66;;;16.67;100.00
49122;BME280;35529;44.342;25.944;2023-04-19T08:55:20;100222.00;;;16.84;100.00
49122;BME280;35529;44.342;25.944;2023-04-19T08:57:49;100215.06;;;16.88;100.00
49122;BME280;35529;44.342;25.944;2023-04-19T09:00:15;100217.84;;;16.93;100.00
49122;BME280;35529;44.342;25.944;2023-04-19T09:02:48;100227.91;;;16.86;100.00
49122;BME280;35529;44.342;25.944;2023-04-19T09:05:17;100228.22;;;17.06;100.00
49122;BME280;35529;44.342;25.944;2023-04-19T09:07:46;100219.22;;;17.13;100.00
49122;BME280;35529;44.342;25.944;2023-04-19T09:10:16;100222.06;;;17.06;100.00
49122;BME280;35529;44.342;25.944;2023-04-19T09:12:58;100214.66;;;17.13;100.00
49122;BME280;35529;44.342;25.944;2023-04-19T09:15:34;100222.84;;;17.23;100.00
49122;BME280;35529;44.342;25.944;2023-04-19T09:18:04;100203.53;;;17.04;100.00
49122;BME280;35529;44.342;25.944;2023-04-19T09:20:37;100220.53;;;16.93;100.00
49122;BME280;35529;44.342;25.944;2023-04-19T09:23:07;100219.56;;;16.99;100.00
49122;BME280;35529;44.342;25.944;2023-04-19T09:25:53;100215.72;;;17.12;100.00
49122;BME280;35529;44.342;25.944;2023-04-19T09:28:25;100208.97;;;17.49;100.00
49122;BME280;35529;44.342;25.944;2023-04-19T09:30:54;100204.97;;;17.73;100.00
49122;BME280;35529;44.342;25.944;2023-04-19T09:33:33;100202.84;;;17.75;100.00
49122;BME280;35529;44.342;25.944;2023-04-19T09:36:02;100217.31;;;17.74;100.00
49122;BME280;35529;44.342;25.944;2023-04-19T09:38:46;100199.69;;;17.56;100.00
49122;BME280;35529;44.342;25.944;2023-04-19T09:41:13;100198.84;;;17.56;100.00
49122;BME280;35529;44.342;25.944;2023-04-19T09:43:44;100198.56;;;17.97;100.00
49122;BME280;35529;44.342;25.944;2023-04-19T09:46:33;100199.22;;;18.41;100.00
49122;BME280;35529;44.342;25.944;2023-04-19T09:49:19;100196.03;;;18.77;100.00
49122;BME280;35529;44.342;25.944;2023-04-19T09:51:46;100188.50;;;18.79;100.00
49122;BME280;35529;44.342;25.944;2023-04-19T09:54:16;100193.66;;;18.86;100.00
49122;BME280;35529;44.342;25.944;2023-04-19T09:56:45;100195.22;;;18.76;100.00
49122;BME280;35529;44.342;25.944;2023-04-19T09:59:14;100185.53;;;18.75;100.00
49122;BME280;35529;44.342;25.944;2023-04-19T10:01:46;100190.25;;;18.90;100.00
49122;BME280;35529;44.342;25.944;2023-04-19T10:04:17;100197.09;;;19.14;100.00
49122;BME280;35529;44.342;25.944;2023-04-19T10:06:48;100191.69;;;19.08;100.00
49122;BME280;35529;44.342;25.944;2023-04-19T10:09:18;100194.56;;;18.97;100.00
49122;BME280;35529;44.342;25.944;2023-04-19T10:11:50;100188.66;;;18.95;100.00
49122;BME280;35529;44.342;25.944;2023-04-19T10:14:23;100193.59;;;18.75;100.00
49122;BME280;35529;44.342;25.944;2023-04-19T10:16:52;100194.09;;;18.72;100.00
49122;BME280;35529;44.342;25.944;2023-04-19T10:19:23;100194.97;;;18.83;100.00
49122;BME280;35529;44.342;25.944;2023-04-19T10:21:49;100192.97;;;18.96;100.00
49122;BME280;35529;44.342;25.944;2023-04-19T10:24:16;100195.94;;;18.99;100.00
49122;BME280;35529;44.342;25.944;2023-04-19T10:32:39;100185.84;;;18.84;100.00
49122;BME280;35529;44.342;25.944;2023-04-19T10:35:08;100191.97;;;18.74;100.00
49122;BME280;35529;44.342;25.944;2023-04-19T10:37:38;100174.25;;;18.79;100.00
49122;BME280;35529;44.342;25.944;2023-04-19T10:40:12;100177.47;;;19.13;100.00
49122;BME280;35529;44.342;25.944;2023-04-19T10:43:13;100177.88;;;19.42;100.00
49122;BME280;35529;44.342;25.944;2023-04-19T10:45:40;100167.72;;;19.65;100.00
49122;BME280;35529;44.342;25.944;2023-04-19T10:48:06;100165.84;;;19.71;100.00
49122;BME280;35529;44.342;25.944;2023-04-19T10:53:42;100171.38;;;19.33;100.00
49122;BME280;35529;44.342;25.944;2023-04-19T10:56:09;100166.69;;;19.13;100.00
49122;BME280;35529;44.342;25.944;2023-04-19T11:06:58;100168.88;;;19.21;100.00
49122;BME280;35529;44.342;25.944;2023-04-19T11:09:31;100157.50;;;19.04;100.00
49122;BME280;35529;44.342;25.944;2023-04-19T11:12:04;100162.91;;;19.09;100.00
49122;BME280;35529;44.342;25.944;2023-04-19T11:14:36;100157.34;;;19.31;100.00
49122;BME280;35529;44.342;25.944;2023-04-19T11:17:18;100159.28;;;19.46;100.00
49122;BME280;35529;44.342;25.944;2023-04-19T11:19:51;100155.31;;;19.59;100.00
49122;BME280;35529;44.342;25.944;2023-04-19T11:22:20;100156.41;;;19.63;100.00
49122;BME280;35529;44.342;25.944;2023-04-19T11:24:49;100142.50;;;19.87;100.00
49122;BME280;35529;44.342;25.944;2023-04-19T11:27:15;100155.47;;;20.31;100.00
49122;BME280;35529;44.342;25.944;2023-04-19T11:29:46;100139.81;;;20.54;100.00
49122;BME280;35529;44.342;25.944;2023-04-19T11:32:15;100133.88;;;20.67;100.00
49122;BME280;35529;44.342;25.944;2023-04-19T11:34:46;100136.56;;;20.77;100.00
49122;BME280;35529;44.342;25.944;2023-04-19T11:37:15;100133.84;;;20.77;100.00
49122;BME280;35529;44.342;25.944;2023-04-19T11:39:45;100131.69;;;20.64;100.00
49122;BME280;35529;44.342;25.944;2023-04-19T11:42:18;100136.28;;;20.58;100.00
49122;BME280;35529;44.342;25.944;2023-04-19T11:44:48;100125.25;;;20.45;100.00
49122;BME280;35529;44.342;25.944;2023-04-19T11:47:15;100118.53;;;20.21;100.00
49122;BME280;35529;44.342;25.944;2023-04-19T11:49:45;100120.16;;;20.12;100.00
49122;BME280;35529;44.342;25.944;2023-04-19T11:52:19;100118.28;;;20.28;100.00
49122;BME280;35529;44.342;25.944;2023-04-19T11:54:48;100125.50;;;20.53;100.00
49122;BME280;35529;44.342;25.944;2023-04-19T11:57:14;100113.13;;;20.37;100.00
49122;BME280;35529;44.342;25.944;2023-04-19T12:00:00;100105.84;;;20.37;100.00
49122;BME280;35529;44.342;25.944;2023-04-19T12:02:27;100101.22;;;20.64;100.00
49122;BME280;35529;44.342;25.944;2023-04-19T12:04:53;100087.97;;;20.93;100.00
49122;BME280;35529;44.342;25.944;2023-04-19T12:07:22;100083.00;;;21.21;100.00
49122;BME280;35529;44.342;25.944;2023-04-19T12:09:51;100090.53;;;21.19;100.00
49122;BME280;35529;44.342;25.944;2023-04-19T12:12:32;100084.06;;;21.20;100.00
49122;BME280;35529;44.342;25.944;2023-04-19T12:14:58;100081.38;;;21.20;100.00
49122;BME280;35529;44.342;25.944;2023-04-19T12:17:25;100088.09;;;21.22;100.00
49122;BME280;35529;44.342;25.944;2023-04-19T12:19:54;100081.09;;;21.16;100.00
49122;BME280;35529;44.342;25.944;2023-04-19T12:22:25;100075.72;;;21.16;100.00
49122;BME280;35529;44.342;25.944;2023-04-19T12:24:52;100071.16;;;21.12;100.00
49122;BME280;35529;44.342;25.944;2023-04-19T12:27:21;100064.16;;;21.00;100.00
49122;BME280;35529;44.342;25.944;2023-04-19T12:29:53;100076.88;;;20.95;100.00
49122;BME280;35529;44.342;25.944;2023-04-19T12:32:21;100070.41;;;20.96;100.00
49122;BME280;35529;44.342;25.944;2023-04-19T12:34:47;100070.88;;;21.08;100.00
49122;BME280;35529;44.342;25.944;2023-04-19T12:37:14;100062.75;;;21.18;100.00
49122;BME280;35529;44.342;25.944;2023-04-19T12:39:40;100057.56;;;21.27;100.00
49122;BME280;35529;44.342;25.944;2023-04-19T12:42:06;100066.78;;;21.21;100.00
49122;BME280;35529;44.342;25.944;2023-04-19T12:44:37;100057.63;;;21.22;100.00
49122;BME280;35529;44.342;25.944;2023-04-19T12:47:04;100057.69;;;21.06;100.00
49122;BME280;35529;44.342;25.944;2023-04-19T12:49:35;100049.00;;;21.15;100.00
49122;BME280;35529;44.342;25.944;2023-04-19T12:52:05;100062.44;;;21.25;100.00
49122;BME280;35529;44.342;25.944;2023-04-19T12:54:34;100055.38;;;21.34;100.00
49122;BME280;35529;44.342;25.944;2023-04-19T12:57:02;100051.38;;;21.26;100.00
49122;BME280;35529;44.342;25.944;2023-04-19T12:59:33;100059.28;;;21.07;100.00